sensor_id;sensor_type;location;lat;lon;timestamp;pressure;altitude;pressure_sealevel;temperature;humidity
21401;BME280;18038;50.166;18.908;2023-03-03T00:02:09;98222.06;;;-2.11;76.39
21401;BME280;18038;50.166;18.908;2023-03-03T00:05:16;98220.38;;;-2.12;76.37
21401;BME280;18038;50.166;18.908;2023-03-03T00:08:27;98215.88;;;-2.10;75.60
21401;BME280;18038;50.166;18.908;2023-03-03T00:11:34;98219.06;;;-2.17;74.88
21401;BME280;18038;50.166;18.908;2023-03-03T00:14:43;98216.66;;;-2.20;74.32
21401;BME280;18038;50.166;18.908;2023-03-03T00:17:51;98223.03;;;-2.25;74.73
21401;BME280;18038;50.166;18.908;2023-03-03T00:21:27;98224.44;;;-2.32;75.33
21401;BME280;18038;50.166;18.908;2023-03-03T00:24:36;98222.88;;;-2.34;74.66
21401;BME280;18038;50.166;18.908;2023-03-03T00:27:42;98219.41;;;-2.35;74.78
21401;BME280;18038;50.166;18.908;2023-03-03T00:30:54;98214.00;;;-2.44;75.18
21401;BME280;18038;50.166;18.908;2023-03-03T00:34:23;98206.56;;;-2.51;75.72
21401;BME280;18038;50.166;18.908;2023-03-03T00:37:34;98206.41;;;-2.60;76.96
21401;BME280;18038;50.166;18.908;2023-03-03T00:40:41;98199.84;;;-2.79;78.70
21401;BME280;18038;50.166;18.908;2023-03-03T00:43:49;98198.50;;;-2.84;80.00
21401;BME280;18038;50.166;18.908;2023-03-03T00:47:27;98203.38;;;-2.67;79.28
21401;BME280;18038;50.166;18.908;2023-03-03T00:50:40;98188.00;;;-2.72;79.03
21401;BME280;18038;50.166;18.908;2023-03-03T00:53:49;98202.44;;;-2.79;80.01
21401;BME280;18038;50.166;18.908;2023-03-03T00:56:56;98207.16;;;-2.71;78.77
21401;BME280;18038;50.166;18.908;2023-03-03T01:00:07;98201.50;;;-2.65;77.15
21401;BME280;18038;50.166;18.908;2023-03-03T01:03:21;98192.91;;;-2.67;76.98
21401;BME280;18038;50.166;18.908;2023-03-03T01:06:28;98192.50;;;-2.61;76.01
21401;BME280;18038;50.166;18.908;2023-03-03T01:09:35;98195.44;;;-2.65;75.75
21401;BME280;18038;50.166;18.908;2023-03-03T01:12:42;98195.84;;;-2.72;75.58
21401;BME280;18038;50.166;18.908;2023-03-03T01:15:50;98188.44;;;-2.78;76.33
21401;BME280;18038;50.166;18.908;2023-03-03T01:18:59;98191.47;;;-2.84;75.97
21401;BME280;18038;50.166;18.908;2023-03-03T01:22:06;98188.13;;;-2.86;76.33
21401;BME280;18038;50.166;18.908;2023-03-03T01:25:12;98182.28;;;-2.89;76.25
21401;BME280;18038;50.166;18.908;2023-03-03T01:28:19;98184.06;;;-2.90;76.52
21401;BME280;18038;50.166;18.908;2023-03-03T01:31:26;98172.66;;;-2.89;76.23
21401;BME280;18038;50.166;18.908;2023-03-03T01:34:36;98176.53;;;-2.95;75.62
21401;BME280;18038;50.166;18.908;2023-03-03T01:37:42;98163.03;;;-3.01;75.79
21401;BME280;18038;50.166;18.908;2023-03-03T01:40:52;98164.22;;;-3.05;75.78
21401;BME280;18038;50.166;18.908;2023-03-03T01:44:02;98159.72;;;-3.29;76.02
21401;BME280;18038;50.166;18.908;2023-03-03T01:47:11;98167.66;;;-3.30;77.59
21401;BME280;18038;50.166;18.908;2023-03-03T01:50:37;98173.09;;;-3.21;77.18
21401;BME280;18038;50.166;18.908;2023-03-03T01:53:53;98169.22;;;-3.15;76.53
21401;BME280;18038;50.166;18.908;2023-03-03T01:57:06;98155.94;;;-3.12;76.05
21401;BME280;18038;50.166;18.908;2023-03-03T02:00:19;98161.59;;;-3.18;75.70
21401;BME280;18038;50.166;18.908;2023-03-03T02:03:25;98164.09;;;-3.17;75.75
21401;BME280;18038;50.166;18.908;2023-03-03T02:06:39;98157.19;;;-3.30;75.48
21401;BME280;18038;50.166;18.908;2023-03-03T02:09:55;98152.72;;;-3.41;76.92
21401;BME280;18038;50.166;18.908;2023-03-03T02:13:07;98154.69;;;-3.58;78.27
21401;BME280;18038;50.166;18.908;2023-03-03T02:16:14;98156.66;;;-3.48;79.04
21401;BME280;18038;50.166;18.908;2023-03-03T02:19:30;98162.22;;;-3.40;77.41
21401;BME280;18038;50.166;18.908;2023-03-03T02:22:54;98157.00;;;-3.40;76.70
21401;BME280;18038;50.166;18.908;2023-03-03T02:26:14;98164.94;;;-3.42;76.22
21401;BME280;18038;50.166;18.908;2023-03-03T02:29:23;98164.09;;;-3.42;75.54
21401;BME280;18038;50.166;18.908;2023-03-03T02:32:29;98167.63;;;-3.43;75.78
21401;BME280;18038;50.166;18.908;2023-03-03T02:35:38;98172.16;;;-3.45;75.27
21401;BME280;18038;50.166;18.908;2023-03-03T02:38:50;98172.25;;;-3.47;75.48
21401;BME280;18038;50.166;18.908;2023-03-03T02:42:13;98172.34;;;-3.48;75.05
21401;BME280;18038;50.166;18.908;2023-03-03T02:45:28;98167.44;;;-3.53;74.96
21401;BME280;18038;50.166;18.908;2023-03-03T02:48:35;98179.00;;;-3.57;74.69
21401;BME280;18038;50.166;18.908;2023-03-03T02:51:42;98177.53;;;-3.74;75.38
21401;BME280;18038;50.166;18.908;2023-03-03T02:54:49;98184.09;;;-3.81;76.15
21401;BME280;18038;50.166;18.908;2023-03-03T02:57:59;98187.66;;;-3.82;76.49
21401;BME280;18038;50.166;18.908;2023-03-03T03:01:06;98180.19;;;-3.88;77.01
21401;BME280;18038;50.166;18.908;2023-03-03T03:04:16;98166.31;;;-3.89;76.97
21401;BME280;18038;50.166;18.908;2023-03-03T03:07:26;98172.38;;;-3.88;77.31
21401;BME280;18038;50.166;18.908;2023-03-03T03:10:32;98169.03;;;-3.90;76.88
21401;BME280;18038;50.166;18.908;2023-03-03T03:13:42;98163.66;;;-4.14;77.85
21401;BME280;18038;50.166;18.908;2023-03-03T03:16:49;98175.34;;;-4.07;78.82
21401;BME280;18038;50.166;18.908;2023-03-03T03:19:56;98169.41;;;-3.96;78.53
21401;BME280;18038;50.166;18.908;2023-03-03T03:23:03;98167.25;;;-3.90;78.18
21401;BME280;18038;50.166;18.908;2023-03-03T03:26:10;98161.75;;;-3.85;78.06
21401;BME280;18038;50.166;18.908;2023-03-03T03:29:20;98154.84;;;-3.86;77.76
21401;BME280;18038;50.166;18.908;2023-03-03T03:32:28;98154.53;;;-3.82;77.67
21401;BME280;18038;50.166;18.908;2023-03-03T03:35:36;98153.06;;;-3.86;77.41
21401;BME280;18038;50.166;18.908;2023-03-03T03:38:49;98147.50;;;-3.94;77.89
21401;BME280;18038;50.166;18.908;2023-03-03T03:41:56;98140.09;;;-4.00;77.57
21401;BME280;18038;50.166;18.908;2023-03-03T03:45:07;98152.34;;;-3.88;77.20
21401;BME280;18038;50.166;18.908;2023-03-03T03:48:20;98150.03;;;-3.92;77.16
21401;BME280;18038;50.166;18.908;2023-03-03T03:51:27;98141.16;;;-3.90;76.75
21401;BME280;18038;50.166;18.908;2023-03-03T03:54:33;98148.88;;;-3.88;76.74
21401;BME280;18038;50.166;18.908;2023-03-03T03:57:40;98148.22;;;-4.05;77.84
21401;BME280;18038;50.166;18.908;2023-03-03T04:00:50;98149.03;;;-4.17;79.49
21401;BME280;18038;50.166;18.908;2023-03-03T04:04:01;98147.88;;;-4.13;79.80
21401;BME280;18038;50.166;18.908;2023-03-03T04:07:08;98155.13;;;-4.04;79.25
21401;BME280;18038;50.166;18.908;2023-03-03T04:10:25;98156.38;;;-3.96;77.77
21401;BME280;18038;50.166;18.908;2023-03-03T04:13:33;98157.31;;;-3.97;77.18
21401;BME280;18038;50.166;18.908;2023-03-03T04:16:47;98169.84;;;-4.03;76.69
21401;BME280;18038;50.166;18.908;2023-03-03T04:19:54;98167.72;;;-4.10;76.71
21401;BME280;18038;50.166;18.908;2023-03-03T04:23:03;98162.28;;;-4.07;76.60
21401;BME280;18038;50.166;18.908;2023-03-03T04:26:10;98166.97;;;-4.12;76.76
21401;BME280;18038;50.166;18.908;2023-03-03T04:29:20;98162.91;;;-4.16;76.51
21401;BME280;18038;50.166;18.908;2023-03-03T04:32:30;98172.69;;;-4.20;76.33
21401;BME280;18038;50.166;18.908;2023-03-03T04:35:39;98169.34;;;-4.22;76.32
21401;BME280;18038;50.166;18.908;2023-03-03T04:38:46;98169.16;;;-4.19;77.34
21401;BME280;18038;50.166;18.908;2023-03-03T04:41:53;98165.31;;;-4.13;77.04
21401;BME280;18038;50.166;18.908;2023-03-03T04:45:04;98162.84;;;-4.29;76.93
21401;BME280;18038;50.166;18.908;2023-03-03T04:48:14;98161.28;;;-4.32;78.73
21401;BME280;18038;50.166;18.908;2023-03-03T04:51:22;98162.44;;;-4.23;78.25
21401;BME280;18038;50.166;18.908;2023-03-03T04:54:32;98166.00;;;-4.24;78.37
21401;BME280;18038;50.166;18.908;2023-03-03T04:57:38;98164.50;;;-4.28;77.77
21401;BME280;18038;50.166;18.908;2023-03-03T05:00:45;98164.50;;;-4.28;77.94
21401;BME280;18038;50.166;18.908;2023-03-03T05:03:54;98159.50;;;-4.31;77.58
21401;BME280;18038;50.166;18.908;2023-03-03T05:07:02;98157.91;;;-4.34;77.27
21401;BME280;18038;50.166;18.908;2023-03-03T05:10:09;98159.50;;;-4.31;77.20
21401;BME280;18038;50.166;18.908;2023-03-03T05:13:17;98152.00;;;-4.23;77.20
21401;BME280;18038;50.166;18.908;2023-03-03T05:16:25;98150.34;;;-4.24;76.96
21401;BME280;18038;50.166;18.908;2023-03-03T05:19:35;98151.88;;;-4.34;77.40
21401;BME280;18038;50.166;18.908;2023-03-03T05:22:41;98163.88;;;-4.32;77.49
21401;BME280;18038;50.166;18.908;2023-03-03T05:25:49;98171.06;;;-4.35;77.74
21401;BME280;18038;50.166;18.908;2023-03-03T05:28:55;98177.13;;;-4.35;77.96
21401;BME280;18038;50.166;18.908;2023-03-03T05:32:02;98177.56;;;-4.28;77.71
21401;BME280;18038;50.166;18.908;2023-03-03T05:35:18;98179.25;;;-4.27;77.43
21401;BME280;18038;50.166;18.908;2023-03-03T05:38:26;98180.34;;;-4.31;77.44
21401;BME280;18038;50.166;18.908;2023-03-03T05:41:35;98191.66;;;-4.45;77.56
21401;BME280;18038;50.166;18.908;2023-03-03T05:44:42;98210.44;;;-4.67;78.36
21401;BME280;18038;50.166;18.908;2023-03-03T05:47:50;98210.34;;;-4.80;79.63
21401;BME280;18038;50.166;18.908;2023-03-03T05:51:00;98205.41;;;-4.84;80.71
21401;BME280;18038;50.166;18.908;2023-03-03T05:54:06;98209.66;;;-4.83;82.24
21401;BME280;18038;50.166;18.908;2023-03-03T05:57:13;98211.53;;;-4.71;82.77
21401;BME280;18038;50.166;18.908;2023-03-03T06:00:20;98211.50;;;-4.57;82.55
21401;BME280;18038;50.166;18.908;2023-03-03T06:03:37;98221.41;;;-4.62;81.93
21401;BME280;18038;50.166;18.908;2023-03-03T06:06:46;98227.91;;;-4.69;82.53
21401;BME280;18038;50.166;18.908;2023-03-03T06:09:53;98233.09;;;-4.55;82.82
21401;BME280;18038;50.166;18.908;2023-03-03T06:12:59;98237.13;;;-4.63;82.48
21401;BME280;18038;50.166;18.908;2023-03-03T06:16:10;98239.66;;;-4.62;82.41
21401;BME280;18038;50.166;18.908;2023-03-03T06:19:16;98243.53;;;-4.55;82.23
21401;BME280;18038;50.166;18.908;2023-03-03T06:22:26;98256.31;;;-4.64;81.80
21401;BME280;18038;50.166;18.908;2023-03-03T06:25:32;98254.44;;;-4.77;81.67
21401;BME280;18038;50.166;18.908;2023-03-03T06:28:39;98265.25;;;-4.83;81.80
21401;BME280;18038;50.166;18.908;2023-03-03T06:31:45;98258.81;;;-4.77;81.66
21401;BME280;18038;50.166;18.908;2023-03-03T06:34:52;98248.59;;;-4.80;81.51
21401;BME280;18038;50.166;18.908;2023-03-03T06:38:01;98252.22;;;-4.69;81.09
21401;BME280;18038;50.166;18.908;2023-03-03T06:41:10;98258.53;;;-4.58;81.25
21401;BME280;18038;50.166;18.908;2023-03-03T06:44:17;98234.84;;;-4.41;80.99
21401;BME280;18038;50.166;18.908;2023-03-03T06:47:24;98238.22;;;-4.39;80.21
21401;BME280;18038;50.166;18.908;2023-03-03T06:50:33;98247.78;;;-4.25;79.88
21401;BME280;18038;50.166;18.908;2023-03-03T06:53:44;98242.81;;;-4.15;80.10
21401;BME280;18038;50.166;18.908;2023-03-03T06:56:58;98250.38;;;-4.11;79.56
21401;BME280;18038;50.166;18.908;2023-03-03T07:00:24;98264.41;;;-4.40;80.04
21401;BME280;18038;50.166;18.908;2023-03-03T07:03:33;98269.91;;;-4.74;81.15
21401;BME280;18038;50.166;18.908;2023-03-03T07:06:41;98272.13;;;-4.96;82.82
21401;BME280;18038;50.166;18.908;2023-03-03T07:09:52;98263.63;;;-5.14;82.86
21401;BME280;18038;50.166;18.908;2023-03-03T07:13:20;98260.50;;;-4.76;83.89
21401;BME280;18038;50.166;18.908;2023-03-03T07:16:27;98252.28;;;-4.70;83.05
21401;BME280;18038;50.166;18.908;2023-03-03T07:19:42;98275.09;;;-4.45;82.50
21401;BME280;18038;50.166;18.908;2023-03-03T07:22:49;98265.88;;;-4.65;81.33
21401;BME280;18038;50.166;18.908;2023-03-03T07:26:03;98246.63;;;-4.62;81.88
21401;BME280;18038;50.166;18.908;2023-03-03T07:29:21;98258.91;;;-4.50;82.20
21401;BME280;18038;50.166;18.908;2023-03-03T07:32:39;98258.72;;;-4.47;81.46
21401;BME280;18038;50.166;18.908;2023-03-03T07:35:46;98268.41;;;-4.35;81.16
21401;BME280;18038;50.166;18.908;2023-03-03T07:38:58;98281.53;;;-4.51;80.73
21401;BME280;18038;50.166;18.908;2023-03-03T07:42:29;98285.16;;;-4.25;81.03
21401;BME280;18038;50.166;18.908;2023-03-03T07:46:00;98273.13;;;-4.27;79.99
21401;BME280;18038;50.166;18.908;2023-03-03T07:49:20;98282.25;;;-4.34;80.14
21401;BME280;18038;50.166;18.908;2023-03-03T07:52:34;98267.47;;;-4.48;81.06
21401;BME280;18038;50.166;18.908;2023-03-03T07:55:45;98269.72;;;-4.56;81.28
21401;BME280;18038;50.166;18.908;2023-03-03T07:58:56;98264.28;;;-4.25;80.72
21401;BME280;18038;50.166;18.908;2023-03-03T08:02:29;98273.56;;;-4.06;79.49
21401;BME280;18038;50.166;18.908;2023-03-03T08:05:44;98303.97;;;-4.34;79.80
21401;BME280;18038;50.166;18.908;2023-03-03T08:08:53;98298.84;;;-4.64;81.59
21401;BME280;18038;50.166;18.908;2023-03-03T08:15:49;98267.09;;;-4.42;82.62
21401;BME280;18038;50.166;18.908;2023-03-03T08:19:02;98269.13;;;-4.47;81.46
21401;BME280;18038;50.166;18.908;2023-03-03T08:22:15;98272.09;;;-4.39;81.77
21401;BME280;18038;50.166;18.908;2023-03-03T08:25:25;98270.13;;;-4.21;81.55
21401;BME280;18038;50.166;18.908;2023-03-03T08:28:31;98292.13;;;-4.39;80.96
21401;BME280;18038;50.166;18.908;2023-03-03T08:31:45;98296.16;;;-4.48;82.06
21401;BME280;18038;50.166;18.908;2023-03-03T08:34:51;98289.00;;;-4.59;81.81
21401;BME280;18038;50.166;18.908;2023-03-03T08:37:58;98295.31;;;-4.49;81.84
21401;BME280;18038;50.166;18.908;2023-03-03T08:41:04;98297.72;;;-4.60;81.58
21401;BME280;18038;50.166;18.908;2023-03-03T08:44:11;98308.59;;;-4.68;82.53
21401;BME280;18038;50.166;18.908;2023-03-03T08:47:20;98305.94;;;-4.66;83.35
21401;BME280;18038;50.166;18.908;2023-03-03T08:50:28;98282.91;;;-4.59;83.47
21401;BME280;18038;50.166;18.908;2023-03-03T08:53:34;98311.69;;;-4.61;83.63
21401;BME280;18038;50.166;18.908;2023-03-03T08:56:41;98317.56;;;-4.72;84.83
21401;BME280;18038;50.166;18.908;2023-03-03T08:59:47;98311.31;;;-4.69;85.41
21401;BME280;18038;50.166;18.908;2023-03-03T09:02:57;98306.88;;;-4.67;85.91
21401;BME280;18038;50.166;18.908;2023-03-03T09:06:06;98300.63;;;-4.64;85.83
21401;BME280;18038;50.166;18.908;2023-03-03T09:09:13;98301.25;;;-4.47;86.46
21401;BME280;18038;50.166;18.908;2023-03-03T09:12:24;98287.66;;;-4.52;85.43
21401;BME280;18038;50.166;18.908;2023-03-03T09:15:37;98292.38;;;-4.15;85.92
21401;BME280;18038;50.166;18.908;2023-03-03T09:18:48;98286.63;;;-4.20;84.65
21401;BME280;18038;50.166;18.908;2023-03-03T09:22:00;98287.59;;;-3.94;84.57
21401;BME280;18038;50.166;18.908;2023-03-03T09:25:30;98295.63;;;-3.97;83.73
21401;BME280;18038;50.166;18.908;2023-03-03T09:28:39;98297.84;;;-3.91;84.09
21401;BME280;18038;50.166;18.908;2023-03-03T09:31:48;98294.59;;;-3.68;84.21
21401;BME280;18038;50.166;18.908;2023-03-03T09:35:00;98295.94;;;-3.48;83.50
21401;BME280;18038;50.166;18.908;2023-03-03T09:38:43;98295.53;;;-3.42;82.31
21401;BME280;18038;50.166;18.908;2023-03-03T09:42:07;98292.84;;;-3.15;82.28
21401;BME280;18038;50.166;18.908;2023-03-03T09:45:50;98293.63;;;-3.00;81.61
21401;BME280;18038;50.166;18.908;2023-03-03T09:49:20;98273.13;;;-2.93;80.85
21401;BME280;18038;50.166;18.908;2023-03-03T09:52:47;98287.03;;;-2.80;80.50
21401;BME280;18038;50.166;18.908;2023-03-03T09:56:18;98294.34;;;-2.85;80.39
21401;BME280;18038;50.166;18.908;2023-03-03T09:59:40;98306.03;;;-3.03;80.84
21401;BME280;18038;50.166;18.908;2023-03-03T10:07:22;98320.06;;;-3.04;82.07
21401;BME280;18038;50.166;18.908;2023-03-03T10:10:48;98316.50;;;-3.43;82.92
21401;BME280;18038;50.166;18.908;2023-03-03T10:14:17;98316.34;;;-3.27;83.36
21401;BME280;18038;50.166;18.908;2023-03-03T10:17:48;98304.97;;;-3.26;82.88
21401;BME280;18038;50.166;18.908;2023-03-03T10:21:03;98315.63;;;-3.17;82.58
21401;BME280;18038;50.166;18.908;2023-03-03T10:24:26;98315.31;;;-3.25;82.28
21401;BME280;18038;50.166;18.908;2023-03-03T10:27:53;98322.97;;;-3.22;83.07
21401;BME280;18038;50.166;18.908;2023-03-03T10:31:22;98324.44;;;-3.05;82.38
21401;BME280;18038;50.166;18.908;2023-03-03T10:34:58;98330.41;;;-3.03;81.92
21401;BME280;18038;50.166;18.908;2023-03-03T10:38:27;98335.31;;;-2.98;81.71
21401;BME280;18038;50.166;18.908;2023-03-03T10:41:59;98332.75;;;-2.73;81.23
21401;BME280;18038;50.166;18.908;2023-03-03T10:45:35;98335.84;;;-2.93;81.76
21401;BME280;18038;50.166;18.908;2023-03-03T10:49:21;98328.22;;;-2.96;81.06
21401;BME280;18038;50.166;18.908;2023-03-03T10:52:53;98324.38;;;-2.78;81.24
21401;BME280;18038;50.166;18.908;2023-03-03T10:56:22;98323.97;;;-2.59;80.46
21401;BME280;18038;50.166;18.908;2023-03-03T11:00:07;98331.72;;;-2.57;79.89
21401;BME280;18038;50.166;18.908;2023-03-03T11:03:48;98322.50;;;-2.76;81.24
21401;BME280;18038;50.166;18.908;2023-03-03T11:07:23;98327.81;;;-2.77;81.64
21401;BME280;18038;50.166;18.908;2023-03-03T11:10:47;98324.81;;;-2.84;81.91
21401;BME280;18038;50.166;18.908;2023-03-03T11:14:07;98327.81;;;-2.77;81.94
21401;BME280;18038;50.166;18.908;2023-03-03T11:17:28;98318.00;;;-2.74;81.13
21401;BME280;18038;50.166;18.908;2023-03-03T11:21:01;98323.03;;;-2.71;81.76
21401;BME280;18038;50.166;18.908;2023-03-03T11:24:36;98315.94;;;-2.69;81.16
21401;BME280;18038;50.166;18.908;2023-03-03T11:28:10;98322.50;;;-2.63;81.19
21401;BME280;18038;50.166;18.908;2023-03-03T11:31:35;98326.56;;;-2.46;80.72
21401;BME280;18038;50.166;18.908;2023-03-03T11:34:59;98312.75;;;-2.35;79.89
21401;BME280;18038;50.166;18.908;2023-03-03T11:38:39;98319.22;;;-2.15;78.97
21401;BME280;18038;50.166;18.908;2023-03-03T11:42:03;98323.22;;;-2.22;78.54
21401;BME280;18038;50.166;18.908;2023-03-03T11:45:31;98309.84;;;-2.43;79.16
21401;BME280;18038;50.166;18.908;2023-03-03T11:48:55;98320.72;;;-2.37;78.69
21401;BME280;18038;50.166;18.908;2023-03-03T11:52:21;98317.25;;;-2.25;78.12
21401;BME280;18038;50.166;18.908;2023-03-03T11:55:37;98305.63;;;-2.20;76.75
21401;BME280;18038;50.166;18.908;2023-03-03T11:58:57;98315.09;;;-1.94;76.06
21401;BME280;18038;50.166;18.908;2023-03-03T12:02:44;98306.72;;;-1.99;74.69
21401;BME280;18038;50.166;18.908;2023-03-03T12:06:16;98310.41;;;-2.02;75.59
21401;BME280;18038;50.166;18.908;2023-03-03T12:09:41;98316.91;;;-2.07;75.41
21401;BME280;18038;50.166;18.908;2023-03-03T12:13:05;98306.00;;;-2.01;75.75
21401;BME280;18038;50.166;18.908;2023-03-03T12:16:41;98313.31;;;-1.93;74.89
21401;BME280;18038;50.166;18.908;2023-03-03T12:20:04;98297.81;;;-1.96;75.22
21401;BME280;18038;50.166;18.908;2023-03-03T12:23:38;98308.84;;;-2.17;75.61
21401;BME280;18038;50.166;18.908;2023-03-03T12:27:06;98308.53;;;-1.99;75.00
21401;BME280;18038;50.166;18.908;2023-03-03T12:30:37;98296.72;;;-2.18;75.52
21401;BME280;18038;50.166;18.908;2023-03-03T12:34:10;98299.56;;;-2.21;75.95
21401;BME280;18038;50.166;18.908;2023-03-03T12:37:50;98286.00;;;-2.02;76.19
21401;BME280;18038;50.166;18.908;2023-03-03T12:41:08;98286.25;;;-1.81;75.33
21401;BME280;18038;50.166;18.908;2023-03-03T12:44:28;98290.09;;;-1.74;75.32
21401;BME280;18038;50.166;18.908;2023-03-03T12:47:49;98279.09;;;-1.79;74.89
21401;BME280;18038;50.166;18.908;2023-03-03T12:51:13;98285.63;;;-1.61;74.76
21401;BME280;18038;50.166;18.908;2023-03-03T12:54:42;98284.41;;;-1.44;73.93
21401;BME280;18038;50.166;18.908;2023-03-03T12:58:07;98282.03;;;-1.47;74.79
21401;BME280;18038;50.166;18.908;2023-03-03T13:01:42;98277.38;;;-1.43;74.24
21401;BME280;18038;50.166;18.908;2023-03-03T13:05:20;98261.16;;;-1.48;73.91
21401;BME280;18038;50.166;18.908;2023-03-03T13:08:50;98277.00;;;-1.50;72.99
21401;BME280;18038;50.166;18.908;2023-03-03T13:12:27;98277.78;;;-1.61;73.42
21401;BME280;18038;50.166;18.908;2023-03-03T13:15:43;98278.84;;;-1.63;73.79
21401;BME280;18038;50.166;18.908;2023-03-03T13:19:02;98277.84;;;-1.49;73.14
21401;BME280;18038;50.166;18.908;2023-03-03T13:25:57;98274.16;;;-1.47;72.20
21401;BME280;18038;50.166;18.908;2023-03-03T13:29:16;98274.81;;;-1.32;72.06
21401;BME280;18038;50.166;18.908;2023-03-03T13:32:36;98282.31;;;-1.39;71.70
21401;BME280;18038;50.166;18.908;2023-03-03T13:35:52;98276.94;;;-1.37;71.95
21401;BME280;18038;50.166;18.908;2023-03-03T13:39:13;98271.03;;;-1.28;72.17
21401;BME280;18038;50.166;18.908;2023-03-03T13:42:32;98271.75;;;-1.26;71.08
21401;BME280;18038;50.166;18.908;2023-03-03T13:46:00;98270.69;;;-1.23;71.29
21401;BME280;18038;50.166;18.908;2023-03-03T13:49:37;98261.06;;;-1.11;71.14
21401;BME280;18038;50.166;18.908;2023-03-03T13:53:18;98264.75;;;-1.14;71.27
21401;BME280;18038;50.166;18.908;2023-03-03T13:57:06;98260.63;;;-1.29;72.30
21401;BME280;18038;50.166;18.908;2023-03-03T14:00:33;98266.50;;;-1.50;74.04
21401;BME280;18038;50.166;18.908;2023-03-03T14:04:05;98264.03;;;-1.51;73.72
21401;BME280;18038;50.166;18.908;2023-03-03T14:07:31;98270.56;;;-1.81;73.30
21401;BME280;18038;50.166;18.908;2023-03-03T14:10:52;98278.06;;;-1.76;72.54
21401;BME280;18038;50.166;18.908;2023-03-03T14:14:30;98278.50;;;-1.59;71.75
21401;BME280;18038;50.166;18.908;2023-03-03T14:17:57;98264.28;;;-1.43;70.61
21401;BME280;18038;50.166;18.908;2023-03-03T14:21:19;98258.59;;;-1.37;70.86
21401;BME280;18038;50.166;18.908;2023-03-03T14:24:54;98251.88;;;-1.17;69.78
21401;BME280;18038;50.166;18.908;2023-03-03T14:28:11;98254.28;;;-1.49;70.60
21401;BME280;18038;50.166;18.908;2023-03-03T14:31:25;98256.59;;;-1.33;71.06
21401;BME280;18038;50.166;18.908;2023-03-03T14:34:36;98240.88;;;-1.33;70.53
21401;BME280;18038;50.166;18.908;2023-03-03T14:37:45;98255.09;;;-1.49;70.71
21401;BME280;18038;50.166;18.908;2023-03-03T14:41:10;98251.25;;;-1.56;70.94
21401;BME280;18038;50.166;18.908;2023-03-03T14:44:28;98255.66;;;-1.56;71.01
21401;BME280;18038;50.166;18.908;2023-03-03T14:47:44;98261.41;;;-1.51;71.38
21401;BME280;18038;50.166;18.908;2023-03-03T14:50:56;98255.56;;;-1.55;70.92
21401;BME280;18038;50.166;18.908;2023-03-03T14:54:13;98248.03;;;-1.60;70.97
21401;BME280;18038;50.166;18.908;2023-03-03T14:57:39;98246.84;;;-1.55;71.05
21401;BME280;18038;50.166;18.908;2023-03-03T15:01:07;98255.22;;;-1.74;71.42
21401;BME280;18038;50.166;18.908;2023-03-03T15:04:27;98253.09;;;-1.69;71.27
21401;BME280;18038;50.166;18.908;2023-03-03T15:07:39;98261.22;;;-1.85;71.77
21401;BME280;18038;50.166;18.908;2023-03-03T15:10:47;98258.47;;;-2.32;72.38
21401;BME280;18038;50.166;18.908;2023-03-03T15:14:10;98252.03;;;-2.15;72.05
21401;BME280;18038;50.166;18.908;2023-03-03T15:17:24;98246.75;;;-2.02;71.75
21401;BME280;18038;50.166;18.908;2023-03-03T15:20:46;98243.50;;;-2.06;70.85
21401;BME280;18038;50.166;18.908;2023-03-03T15:24:04;98246.06;;;-1.93;71.28
21401;BME280;18038;50.166;18.908;2023-03-03T15:27:27;98250.09;;;-2.00;71.19
21401;BME280;18038;50.166;18.908;2023-03-03T15:30:45;98249.25;;;-2.00;71.93
21401;BME280;18038;50.166;18.908;2023-03-03T15:34:13;98249.78;;;-2.08;72.21
21401;BME280;18038;50.166;18.908;2023-03-03T15:37:44;98247.63;;;-2.14;72.94
21401;BME280;18038;50.166;18.908;2023-03-03T15:41:07;98248.53;;;-2.03;72.71
21401;BME280;18038;50.166;18.908;2023-03-03T15:44:35;98252.00;;;-2.02;72.85
21401;BME280;18038;50.166;18.908;2023-03-03T15:48:21;98258.09;;;-2.14;72.88
21401;BME280;18038;50.166;18.908;2023-03-03T15:51:58;98243.25;;;-2.27;73.35
21401;BME280;18038;50.166;18.908;2023-03-03T15:55:50;98232.78;;;-2.27;73.61
21401;BME280;18038;50.166;18.908;2023-03-03T15:59:28;98240.22;;;-1.96;72.90
21401;BME280;18038;50.166;18.908;2023-03-03T16:03:10;98244.88;;;-2.00;72.82
21401;BME280;18038;50.166;18.908;2023-03-03T16:06:30;98247.47;;;-2.00;72.91
21401;BME280;18038;50.166;18.908;2023-03-03T16:09:57;98243.94;;;-2.12;73.09
21401;BME280;18038;50.166;18.908;2023-03-03T16:13:39;98220.38;;;-2.36;73.58
21401;BME280;18038;50.166;18.908;2023-03-03T16:17:20;98244.50;;;-2.19;73.81
21401;BME280;18038;50.166;18.908;2023-03-03T16:20:39;98238.44;;;-2.20;73.75
21401;BME280;18038;50.166;18.908;2023-03-03T16:24:00;98252.47;;;-2.21;74.14
21401;BME280;18038;50.166;18.908;2023-03-03T16:27:31;98249.09;;;-2.10;74.16
21401;BME280;18038;50.166;18.908;2023-03-03T16:30:55;98256.66;;;-2.31;74.45
21401;BME280;18038;50.166;18.908;2023-03-03T16:34:15;98258.66;;;-2.35;74.54
21401;BME280;18038;50.166;18.908;2023-03-03T16:37:31;98261.88;;;-2.18;74.46
21401;BME280;18038;50.166;18.908;2023-03-03T16:40:48;98259.34;;;-2.20;74.28
21401;BME280;18038;50.166;18.908;2023-03-03T16:44:14;98265.19;;;-2.16;73.67
21401;BME280;18038;50.166;18.908;2023-03-03T16:47:52;98263.31;;;-2.14;73.76
21401;BME280;18038;50.166;18.908;2023-03-03T16:51:25;98269.06;;;-2.09;73.41
21401;BME280;18038;50.166;18.908;2023-03-03T16:54:50;98261.03;;;-2.19;73.65
21401;BME280;18038;50.166;18.908;2023-03-03T16:58:26;98267.75;;;-2.28;74.49
21401;BME280;18038;50.166;18.908;2023-03-03T17:01:51;98265.34;;;-2.31;75.14
21401;BME280;18038;50.166;18.908;2023-03-03T17:05:38;98262.13;;;-2.34;74.68
21401;BME280;18038;50.166;18.908;2023-03-03T17:12:51;98259.53;;;-2.47;76.59
21401;BME280;18038;50.166;18.908;2023-03-03T17:16:25;98260.56;;;-2.37;76.19
21401;BME280;18038;50.166;18.908;2023-03-03T17:20:06;98269.41;;;-2.27;75.64
21401;BME280;18038;50.166;18.908;2023-03-03T17:23:48;98261.25;;;-2.22;76.24
21401;BME280;18038;50.166;18.908;2023-03-03T17:27:11;98268.56;;;-2.14;75.63
21401;BME280;18038;50.166;18.908;2023-03-03T17:30:34;98272.13;;;-2.15;75.59